sensor_id;sensor_type;location;lat;lon;timestamp;P1;durP1;ratioP1;P2;durP2;ratioP2
71679;SDS011;59512;42.662;23.254;2024-03-25T00:00:27;1.50;;;0.45;;
71679;SDS011;59512;42.662;23.254;2024-03-25T00:02:53;1.67;;;0.40;;
71679;SDS011;59512;42.662;23.254;2024-03-25T00:05:19;2.63;;;0.70;;
71679;SDS011;59512;42.662;23.254;2024-03-25T00:07:50;2.43;;;0.80;;
71679;SDS011;59512;42.662;23.254;2024-03-25T00:10:16;1.65;;;0.40;;
71679;SDS011;59512;42.662;23.254;2024-03-25T00:12:42;1.80;;;0.52;;
71679;SDS011;59512;42.662;23.254;2024-03-25T00:15:07;1.83;;;0.50;;
71679;SDS011;59512;42.662;23.254;2024-03-25T00:17:33;1.73;;;0.40;;
71679;SDS011;59512;42.662;23.254;2024-03-25T00:19:59;1.30;;;0.50;;
71679;SDS011;59512;42.662;23.254;2024-03-25T00:22:24;2.20;;;0.53;;
71679;SDS011;59512;42.662;23.254;2024-03-25T00:24:50;2.97;;;0.90;;
71679;SDS011;59512;42.662;23.254;2024-03-25T00:27:16;1.13;;;0.40;;
71679;SDS011;59512;42.662;23.254;2024-03-25T00:29:42;3.08;;;0.70;;
71679;SDS011;59512;42.662;23.254;2024-03-25T00:32:08;2.30;;;0.50;;
71679;SDS011;59512;42.662;23.254;2024-03-25T00:34:33;2.75;;;0.82;;
71679;SDS011;59512;42.662;23.254;2024-03-25T00:36:59;1.77;;;0.60;;
71679;SDS011;59512;42.662;23.254;2024-03-25T00:39:25;1.38;;;0.40;;
71679;SDS011;59512;42.662;23.254;2024-03-25T00:41:52;1.75;;;0.60;;
71679;SDS011;59512;42.662;23.254;2024-03-25T00:44:17;1.77;;;0.60;;
71679;SDS011;59512;42.662;23.254;2024-03-25T00:46:43;1.92;;;0.50;;
71679;SDS011;59512;42.662;23.254;2024-03-25T00:49:08;1.70;;;0.60;;
71679;SDS011;59512;42.662;23.254;2024-03-25T00:51:35;3.63;;;0.80;;
71679;SDS011;59512;42.662;23.254;2024-03-25T00:54:01;3.15;;;0.80;;
71679;SDS011;59512;42.662;23.254;2024-03-25T00:56:27;4.10;;;0.80;;
71679;SDS011;59512;42.662;23.254;2024-03-25T00:58:52;2.27;;;0.50;;
71679;SDS011;59512;42.662;23.254;2024-03-25T01:01:18;3.20;;;0.70;;
71679;SDS011;59512;42.662;23.254;2024-03-25T01:03:44;2.67;;;0.50;;
71679;SDS011;59512;42.662;23.254;2024-03-25T01:06:09;4.70;;;0.90;;
71679;SDS011;59512;42.662;23.254;2024-03-25T01:08:35;4.82;;;0.90;;
71679;SDS011;59512;42.662;23.254;2024-03-25T01:11:00;3.77;;;0.93;;
71679;SDS011;59512;42.662;23.254;2024-03-25T01:13:26;3.70;;;1.00;;
71679;SDS011;59512;42.662;23.254;2024-03-25T01:15:51;3.97;;;1.10;;
71679;SDS011;59512;42.662;23.254;2024-03-25T01:18:17;2.07;;;0.70;;
71679;SDS011;59512;42.662;23.254;2024-03-25T01:20:42;1.80;;;0.50;;
71679;SDS011;59512;42.662;23.254;2024-03-25T01:23:09;2.72;;;0.60;;
71679;SDS011;59512;42.662;23.254;2024-03-25T01:25:34;2.20;;;0.60;;
71679;SDS011;59512;42.662;23.254;2024-03-25T01:28:00;2.90;;;0.80;;
71679;SDS011;59512;42.662;23.254;2024-03-25T01:30:25;1.87;;;0.67;;
71679;SDS011;59512;42.662;23.254;2024-03-25T01:32:51;1.77;;;0.53;;
71679;SDS011;59512;42.662;23.254;2024-03-25T01:35:16;2.45;;;0.77;;
71679;SDS011;59512;42.662;23.254;2024-03-25T01:37:41;2.83;;;0.70;;
71679;SDS011;59512;42.662;23.254;2024-03-25T01:40:07;2.37;;;0.73;;
71679;SDS011;59512;42.662;23.254;2024-03-25T01:42:35;2.13;;;0.60;;
71679;SDS011;59512;42.662;23.254;2024-03-25T01:45:01;4.20;;;0.90;;
71679;SDS011;59512;42.662;23.254;2024-03-25T01:47:28;2.80;;;0.70;;
71679;SDS011;59512;42.662;23.254;2024-03-25T01:49:54;5.47;;;1.20;;
71679;SDS011;59512;42.662;23.254;2024-03-25T01:52:21;3.50;;;0.95;;
71679;SDS011;59512;42.662;23.254;2024-03-25T01:54:48;1.65;;;0.50;;
71679;SDS011;59512;42.662;23.254;2024-03-25T01:57:14;1.10;;;0.35;;
71679;SDS011;59512;42.662;23.254;2024-03-25T01:59:40;0.50;;;0.20;;
71679;SDS011;59512;42.662;23.254;2024-03-25T02:02:06;0.45;;;0.30;;
71679;SDS011;59512;42.662;23.254;2024-03-25T02:04:31;1.47;;;0.40;;
71679;SDS011;59512;42.662;23.254;2024-03-25T02:06:56;2.13;;;0.50;;
71679;SDS011;59512;42.662;23.254;2024-03-25T02:09:23;1.95;;;0.45;;
71679;SDS011;59512;42.662;23.254;2024-03-25T02:11:50;1.70;;;0.60;;
71679;SDS011;59512;42.662;23.254;2024-03-25T02:14:16;2.30;;;0.70;;
71679;SDS011;59512;42.662;23.254;2024-03-25T02:16:41;2.58;;;0.70;;
71679;SDS011;59512;42.662;23.254;2024-03-25T02:19:07;1.50;;;0.60;;
71679;SDS011;59512;42.662;23.254;2024-03-25T02:21:33;2.30;;;0.70;;
71679;SDS011;59512;42.662;23.254;2024-03-25T02:23:59;2.17;;;0.60;;
71679;SDS011;59512;42.662;23.254;2024-03-25T02:26:24;1.80;;;0.50;;
71679;SDS011;59512;42.662;23.254;2024-03-25T02:28:50;1.60;;;0.57;;
71679;SDS011;59512;42.662;23.254;2024-03-25T02:31:16;1.77;;;0.60;;
71679;SDS011;59512;42.662;23.254;2024-03-25T02:33:41;1.33;;;0.43;;
71679;SDS011;59512;42.662;23.254;2024-03-25T02:36:07;1.07;;;0.40;;
71679;SDS011;59512;42.662;23.254;2024-03-25T02:38:33;2.13;;;0.70;;
71679;SDS011;59512;42.662;23.254;2024-03-25T02:40:58;4.60;;;0.60;;
71679;SDS011;59512;42.662;23.254;2024-03-25T02:43:24;2.00;;;0.65;;
71679;SDS011;59512;42.662;23.254;2024-03-25T02:45:50;2.75;;;0.60;;
71679;SDS011;59512;42.662;23.254;2024-03-25T02:48:15;3.27;;;1.20;;
71679;SDS011;59512;42.662;23.254;2024-03-25T02:50:41;2.58;;;0.85;;
71679;SDS011;59512;42.662;23.254;2024-03-25T02:53:06;1.90;;;0.60;;
71679;SDS011;59512;42.662;23.254;2024-03-25T02:55:32;1.83;;;0.60;;
71679;SDS011;59512;42.662;23.254;2024-03-25T02:57:57;1.60;;;0.70;;
71679;SDS011;59512;42.662;23.254;2024-03-25T03:00:22;2.50;;;0.80;;
71679;SDS011;59512;42.662;23.254;2024-03-25T03:02:48;1.57;;;0.67;;
71679;SDS011;59512;42.662;23.254;2024-03-25T03:05:13;1.85;;;0.80;;
71679;SDS011;59512;42.662;23.254;2024-03-25T03:07:39;2.13;;;0.80;;
71679;SDS011;59512;42.662;23.254;2024-03-25T03:10:04;4.17;;;1.20;;
71679;SDS011;59512;42.662;23.254;2024-03-25T03:12:30;3.00;;;1.00;;
71679;SDS011;59512;42.662;23.254;2024-03-25T03:14:55;2.97;;;0.80;;
71679;SDS011;59512;42.662;23.254;2024-03-25T03:17:21;3.23;;;1.00;;
71679;SDS011;59512;42.662;23.254;2024-03-25T03:19:46;3.70;;;1.20;;
71679;SDS011;59512;42.662;23.254;2024-03-25T03:22:12;2.87;;;0.90;;
71679;SDS011;59512;42.662;23.254;2024-03-25T03:24:37;5.75;;;1.55;;
71679;SDS011;59512;42.662;23.254;2024-03-25T03:27:02;4.00;;;1.10;;
71679;SDS011;59512;42.662;23.254;2024-03-25T03:29:28;3.40;;;1.00;;
71679;SDS011;59512;42.662;23.254;2024-03-25T03:31:54;3.92;;;1.27;;
71679;SDS011;59512;42.662;23.254;2024-03-25T03:34:20;4.07;;;1.40;;
71679;SDS011;59512;42.662;23.254;2024-03-25T03:36:46;4.57;;;1.58;;
71679;SDS011;59512;42.662;23.254;2024-03-25T03:39:11;3.83;;;1.30;;
71679;SDS011;59512;42.662;23.254;2024-03-25T03:41:38;4.07;;;1.48;;
71679;SDS011;59512;42.662;23.254;2024-03-25T03:44:03;3.63;;;1.20;;
71679;SDS011;59512;42.662;23.254;2024-03-25T03:46:29;4.07;;;1.33;;
71679;SDS011;59512;42.662;23.254;2024-03-25T03:48:54;4.37;;;1.70;;
71679;SDS011;59512;42.662;23.254;2024-03-25T03:51:20;4.67;;;1.77;;
71679;SDS011;59512;42.662;23.254;2024-03-25T03:53:45;3.70;;;1.30;;
71679;SDS011;59512;42.662;23.254;2024-03-25T03:56:11;5.13;;;1.90;;
71679;SDS011;59512;42.662;23.254;2024-03-25T03:58:36;5.60;;;1.80;;
71679;SDS011;59512;42.662;23.254;2024-03-25T04:01:01;4.27;;;1.77;;
71679;SDS011;59512;42.662;23.254;2024-03-25T04:03:29;5.15;;;1.65;;
71679;SDS011;59512;42.662;23.254;2024-03-25T04:05:55;4.43;;;1.57;;
71679;SDS011;59512;42.662;23.254;2024-03-25T04:08:21;5.57;;;2.53;;
71679;SDS011;59512;42.662;23.254;2024-03-25T04:10:46;6.73;;;2.80;;
71679;SDS011;59512;42.662;23.254;2024-03-25T04:13:12;6.23;;;2.70;;
71679;SDS011;59512;42.662;23.254;2024-03-25T04:15:38;7.15;;;2.97;;
71679;SDS011;59512;42.662;23.254;2024-03-25T04:18:04;6.30;;;2.83;;
71679;SDS011;59512;42.662;23.254;2024-03-25T04:20:40;6.83;;;3.10;;
71679;SDS011;59512;42.662;23.254;2024-03-25T04:23:06;7.97;;;3.42;;
71679;SDS011;59512;42.662;23.254;2024-03-25T04:25:34;7.55;;;3.67;;
71679;SDS011;59512;42.662;23.254;2024-03-25T04:28:03;7.93;;;4.18;;
71679;SDS011;59512;42.662;23.254;2024-03-25T04:30:29;8.35;;;4.05;;
71679;SDS011;59512;42.662;23.254;2024-03-25T04:32:54;8.60;;;4.37;;
71679;SDS011;59512;42.662;23.254;2024-03-25T04:35:20;8.13;;;4.30;;
71679;SDS011;59512;42.662;23.254;2024-03-25T04:37:45;8.60;;;4.63;;
71679;SDS011;59512;42.662;23.254;2024-03-25T04:40:11;8.63;;;4.20;;
71679;SDS011;59512;42.662;23.254;2024-03-25T04:42:39;10.38;;;4.50;;
71679;SDS011;59512;42.662;23.254;2024-03-25T04:45:05;10.88;;;5.22;;
71679;SDS011;59512;42.662;23.254;2024-03-25T04:47:31;11.60;;;5.77;;
71679;SDS011;59512;42.662;23.254;2024-03-25T04:49:56;12.33;;;5.70;;
71679;SDS011;59512;42.662;23.254;2024-03-25T04:52:22;12.48;;;5.93;;
71679;SDS011;59512;42.662;23.254;2024-03-25T04:54:51;11.45;;;5.82;;
71679;SDS011;59512;42.662;23.254;2024-03-25T04:57:16;10.50;;;5.82;;
71679;SDS011;59512;42.662;23.254;2024-03-25T04:59:41;11.15;;;5.50;;
71679;SDS011;59512;42.662;23.254;2024-03-25T05:02:07;12.17;;;6.17;;
71679;SDS011;59512;42.662;23.254;2024-03-25T05:04:33;11.88;;;6.00;;
71679;SDS011;59512;42.662;23.254;2024-03-25T05:06:58;12.47;;;6.70;;
71679;SDS011;59512;42.662;23.254;2024-03-25T05:09:23;11.57;;;6.17;;
71679;SDS011;59512;42.662;23.254;2024-03-25T05:11:49;12.90;;;6.87;;
71679;SDS011;59512;42.662;23.254;2024-03-25T05:14:14;13.03;;;7.00;;
71679;SDS011;59512;42.662;23.254;2024-03-25T05:16:40;13.50;;;6.78;;
71679;SDS011;59512;42.662;23.254;2024-03-25T05:19:05;13.90;;;6.87;;
71679;SDS011;59512;42.662;23.254;2024-03-25T05:21:31;12.63;;;6.80;;
71679;SDS011;59512;42.662;23.254;2024-03-25T05:23:56;12.20;;;6.63;;
71679;SDS011;59512;42.662;23.254;2024-03-25T05:26:22;12.87;;;7.00;;
71679;SDS011;59512;42.662;23.254;2024-03-25T05:28:52;12.70;;;7.17;;
71679;SDS011;59512;42.662;23.254;2024-03-25T05:31:22;15.40;;;7.68;;
71679;SDS011;59512;42.662;23.254;2024-03-25T05:33:48;13.40;;;7.50;;
71679;SDS011;59512;42.662;23.254;2024-03-25T05:36:14;12.93;;;7.30;;
71679;SDS011;59512;42.662;23.254;2024-03-25T05:38:39;14.82;;;7.10;;
71679;SDS011;59512;42.662;23.254;2024-03-25T05:41:07;12.83;;;7.47;;
71679;SDS011;59512;42.662;23.254;2024-03-25T05:43:32;15.13;;;7.82;;
71679;SDS011;59512;42.662;23.254;2024-03-25T05:45:57;12.27;;;7.57;;
71679;SDS011;59512;42.662;23.254;2024-03-25T05:48:26;14.13;;;8.00;;
71679;SDS011;59512;42.662;23.254;2024-03-25T05:50:58;13.13;;;7.13;;
71679;SDS011;59512;42.662;23.254;2024-03-25T05:53:30;13.17;;;7.60;;
71679;SDS011;59512;42.662;23.254;2024-03-25T05:55:55;13.70;;;8.02;;
71679;SDS011;59512;42.662;23.254;2024-03-25T05:58:21;13.23;;;7.33;;
71679;SDS011;59512;42.662;23.254;2024-03-25T06:00:47;14.63;;;7.75;;
71679;SDS011;59512;42.662;23.254;2024-03-25T06:03:16;14.77;;;8.30;;
71679;SDS011;59512;42.662;23.254;2024-03-25T06:05:42;12.75;;;7.53;;
71679;SDS011;59512;42.662;23.254;2024-03-25T06:08:08;15.40;;;8.10;;
71679;SDS011;59512;42.662;23.254;2024-03-25T06:10:43;14.23;;;8.02;;
71679;SDS011;59512;42.662;23.254;2024-03-25T06:13:08;13.00;;;7.40;;
71679;SDS011;59512;42.662;23.254;2024-03-25T06:15:34;12.82;;;7.97;;
71679;SDS011;59512;42.662;23.254;2024-03-25T06:17:59;14.13;;;7.40;;
71679;SDS011;59512;42.662;23.254;2024-03-25T06:20:24;14.43;;;8.30;;
71679;SDS011;59512;42.662;23.254;2024-03-25T06:22:50;13.20;;;7.90;;
71679;SDS011;59512;42.662;23.254;2024-03-25T06:25:15;17.03;;;8.97;;
71679;SDS011;59512;42.662;23.254;2024-03-25T06:27:42;14.48;;;8.13;;
71679;SDS011;59512;42.662;23.254;2024-03-25T06:30:07;12.83;;;8.00;;
71679;SDS011;59512;42.662;23.254;2024-03-25T06:32:52;13.40;;;8.35;;
71679;SDS011;59512;42.662;23.254;2024-03-25T06:35:36;13.45;;;7.93;;
71679;SDS011;59512;42.662;23.254;2024-03-25T06:38:01;13.67;;;8.03;;
71679;SDS011;59512;42.662;23.254;2024-03-25T06:40:27;14.87;;;7.67;;
71679;SDS011;59512;42.662;23.254;2024-03-25T06:42:52;13.10;;;8.37;;
71679;SDS011;59512;42.662;23.254;2024-03-25T06:45:18;13.23;;;7.55;;
71679;SDS011;59512;42.662;23.254;2024-03-25T06:47:43;12.82;;;7.80;;
71679;SDS011;59512;42.662;23.254;2024-03-25T06:50:09;12.30;;;7.33;;
71679;SDS011;59512;42.662;23.254;2024-03-25T06:52:35;12.73;;;7.63;;
71679;SDS011;59512;42.662;23.254;2024-03-25T06:55:00;12.53;;;7.27;;
71679;SDS011;59512;42.662;23.254;2024-03-25T06:57:25;13.57;;;7.97;;
71679;SDS011;59512;42.662;23.254;2024-03-25T06:59:51;14.07;;;7.13;;
71679;SDS011;59512;42.662;23.254;2024-03-25T07:02:16;13.55;;;8.02;;
71679;SDS011;59512;42.662;23.254;2024-03-25T07:04:42;13.50;;;8.23;;
71679;SDS011;59512;42.662;23.254;2024-03-25T07:07:07;12.33;;;7.13;;
71679;SDS011;59512;42.662;23.254;2024-03-25T07:09:34;13.70;;;8.13;;
71679;SDS011;59512;42.662;23.254;2024-03-25T07:12:00;13.07;;;7.97;;
71679;SDS011;59512;42.662;23.254;2024-03-25T07:14:25;12.83;;;7.83;;
71679;SDS011;59512;42.662;23.254;2024-03-25T07:16:50;12.93;;;7.65;;
71679;SDS011;59512;42.662;23.254;2024-03-25T07:19:16;15.05;;;8.38;;
71679;SDS011;59512;42.662;23.254;2024-03-25T07:21:41;14.07;;;8.03;;
71679;SDS011;59512;42.662;23.254;2024-03-25T07:24:08;12.03;;;7.07;;
71679;SDS011;59512;42.662;23.254;2024-03-25T07:26:33;18.38;;;8.50;;
71679;SDS011;59512;42.662;23.254;2024-03-25T07:28:59;12.93;;;7.10;;
71679;SDS011;59512;42.662;23.254;2024-03-25T07:31:24;14.50;;;8.57;;
71679;SDS011;59512;42.662;23.254;2024-03-25T07:33:50;13.38;;;7.57;;
71679;SDS011;59512;42.662;23.254;2024-03-25T07:36:15;10.40;;;7.10;;
71679;SDS011;59512;42.662;23.254;2024-03-25T07:38:41;13.87;;;7.57;;
71679;SDS011;59512;42.662;23.254;2024-03-25T07:41:07;12.90;;;8.15;;
71679;SDS011;59512;42.662;23.254;2024-03-25T07:43:33;14.43;;;8.73;;
71679;SDS011;59512;42.662;23.254;2024-03-25T07:46:00;12.10;;;7.85;;
71679;SDS011;59512;42.662;23.254;2024-03-25T07:48:25;11.83;;;7.67;;
71679;SDS011;59512;42.662;23.254;2024-03-25T07:50:50;10.70;;;6.50;;
71679;SDS011;59512;42.662;23.254;2024-03-25T07:53:16;9.95;;;6.70;;
71679;SDS011;59512;42.662;23.254;2024-03-25T07:55:41;13.30;;;6.80;;
71679;SDS011;59512;42.662;23.254;2024-03-25T07:58:07;11.53;;;6.90;;
71679;SDS011;59512;42.662;23.254;2024-03-25T08:00:32;10.60;;;6.70;;
71679;SDS011;59512;42.662;23.254;2024-03-25T08:02:59;12.55;;;7.43;;
71679;SDS011;59512;42.662;23.254;2024-03-25T08:05:24;10.70;;;6.70;;
71679;SDS011;59512;42.662;23.254;2024-03-25T08:07:50;12.07;;;7.13;;
71679;SDS011;59512;42.662;23.254;2024-03-25T08:10:15;12.47;;;7.63;;
71679;SDS011;59512;42.662;23.254;2024-03-25T08:12:41;11.40;;;7.45;;
71679;SDS011;59512;42.662;23.254;2024-03-25T08:15:06;11.38;;;6.85;;
71679;SDS011;59512;42.662;23.254;2024-03-25T08:17:33;11.87;;;6.47;;
71679;SDS011;59512;42.662;23.254;2024-03-25T08:19:58;10.75;;;6.50;;
71679;SDS011;59512;42.662;23.254;2024-03-25T08:22:23;9.50;;;6.23;;
71679;SDS011;59512;42.662;23.254;2024-03-25T08:24:49;11.40;;;6.80;;
71679;SDS011;59512;42.662;23.254;2024-03-25T08:27:14;10.00;;;6.70;;
71679;SDS011;59512;42.662;23.254;2024-03-25T08:29:40;11.63;;;6.68;;
71679;SDS011;59512;42.662;23.254;2024-03-25T08:32:05;10.43;;;6.37;;
71679;SDS011;59512;42.662;23.254;2024-03-25T08:34:31;10.73;;;6.70;;
71679;SDS011;59512;42.662;23.254;2024-03-25T08:36:56;10.10;;;6.15;;
71679;SDS011;59512;42.662;23.254;2024-03-25T08:39:22;10.43;;;6.70;;
71679;SDS011;59512;42.662;23.254;2024-03-25T08:41:47;11.50;;;7.20;;
71679;SDS011;59512;42.662;23.254;2024-03-25T08:44:13;10.83;;;6.40;;
71679;SDS011;59512;42.662;23.254;2024-03-25T08:46:38;11.57;;;7.03;;
71679;SDS011;59512;42.662;23.254;2024-03-25T08:49:04;10.63;;;6.60;;
71679;SDS011;59512;42.662;23.254;2024-03-25T08:51:29;10.40;;;6.00;;
71679;SDS011;59512;42.662;23.254;2024-03-25T08:53:55;11.07;;;6.43;;
71679;SDS011;59512;42.662;23.254;2024-03-25T08:56:20;12.10;;;6.90;;
71679;SDS011;59512;42.662;23.254;2024-03-25T08:58:45;11.60;;;6.63;;
71679;SDS011;59512;42.662;23.254;2024-03-25T09:01:11;10.57;;;6.45;;
71679;SDS011;59512;42.662;23.254;2024-03-25T09:03:39;11.27;;;6.50;;
71679;SDS011;59512;42.662;23.254;2024-03-25T09:06:05;11.10;;;6.32;;
71679;SDS011;59512;42.662;23.254;2024-03-25T09:08:32;11.40;;;6.78;;
71679;SDS011;59512;42.662;23.254;2024-03-25T09:11:17;11.10;;;6.50;;
71679;SDS011;59512;42.662;23.254;2024-03-25T09:13:43;12.40;;;6.53;;
71679;SDS011;59512;42.662;23.254;2024-03-25T09:16:08;11.20;;;6.37;;
71679;SDS011;59512;42.662;23.254;2024-03-25T09:18:33;10.47;;;6.70;;
71679;SDS011;59512;42.662;23.254;2024-03-25T09:20:59;14.10;;;6.80;;
71679;SDS011;59512;42.662;23.254;2024-03-25T09:23:24;11.97;;;6.60;;
71679;SDS011;59512;42.662;23.254;2024-03-25T09:25:53;9.95;;;6.40;;
71679;SDS011;59512;42.662;23.254;2024-03-25T09:28:18;10.80;;;6.65;;
71679;SDS011;59512;42.662;23.254;2024-03-25T09:30:44;10.82;;;6.63;;
71679;SDS011;59512;42.662;23.254;2024-03-25T09:33:09;10.93;;;6.63;;
71679;SDS011;59512;42.662;23.254;2024-03-25T09:35:35;10.20;;;6.63;;
71679;SDS011;59512;42.662;23.254;2024-03-25T09:38:02;10.23;;;6.43;;
71679;SDS011;59512;42.662;23.254;2024-03-25T09:40:27;11.60;;;5.87;;
71679;SDS011;59512;42.662;23.254;2024-03-25T09:42:57;11.35;;;6.88;;
71679;SDS011;59512;42.662;23.254;2024-03-25T09:45:26;11.45;;;6.22;;
71679;SDS011;59512;42.662;23.254;2024-03-25T09:47:53;11.25;;;6.32;;
71679;SDS011;59512;42.662;23.254;2024-03-25T09:50:20;10.83;;;6.67;;
71679;SDS011;59512;42.662;23.254;2024-03-25T09:52:48;10.38;;;5.78;;
71679;SDS011;59512;42.662;23.254;2024-03-25T09:55:14;9.68;;;5.97;;
71679;SDS011;59512;42.662;23.254;2024-03-25T09:57:40;9.00;;;5.50;;
71679;SDS011;59512;42.662;23.254;2024-03-25T10:00:07;9.35;;;5.82;;
71679;SDS011;59512;42.662;23.254;2024-03-25T10:02:34;8.82;;;5.10;;
71679;SDS011;59512;42.662;23.254;2024-03-25T10:05:01;8.80;;;5.18;;
71679;SDS011;59512;42.662;23.254;2024-03-25T10:07:28;8.87;;;5.00;;
71679;SDS011;59512;42.662;23.254;2024-03-25T10:09:53;8.65;;;4.68;;
71679;SDS011;59512;42.662;23.254;2024-03-25T10:12:18;7.73;;;4.40;;
71679;SDS011;59512;42.662;23.254;2024-03-25T10:14:44;7.95;;;4.60;;
71679;SDS011;59512;42.662;23.254;2024-03-25T10:17:10;9.33;;;5.40;;
71679;SDS011;59512;42.662;23.254;2024-03-25T10:19:36;9.10;;;4.90;;
71679;SDS011;59512;42.662;23.254;2024-03-25T10:22:05;8.63;;;4.80;;
71679;SDS011;59512;42.662;23.254;2024-03-25T10:24:39;8.68;;;4.47;;
71679;SDS011;59512;42.662;23.254;2024-03-25T10:27:10;7.20;;;4.03;;
71679;SDS011;59512;42.662;23.254;2024-03-25T10:29:46;8.13;;;4.40;;
71679;SDS011;59512;42.662;23.254;2024-03-25T10:32:17;8.63;;;4.33;;
71679;SDS011;59512;42.662;23.254;2024-03-25T10:34:43;7.32;;;4.05;;
71679;SDS011;59512;42.662;23.254;2024-03-25T10:37:09;6.75;;;3.50;;
71679;SDS011;59512;42.662;23.254;2024-03-25T10:39:38;6.50;;;3.63;;
71679;SDS011;59512;42.662;23.254;2024-03-25T10:42:05;7.28;;;3.70;;
71679;SDS011;59512;42.662;23.254;2024-03-25T10:44:31;7.43;;;3.70;;
71679;SDS011;59512;42.662;23.254;2024-03-25T10:47:03;7.67;;;3.83;;
71679;SDS011;59512;42.662;23.254;2024-03-25T10:49:49;6.68;;;3.50;;
71679;SDS011;59512;42.662;23.254;2024-03-25T10:52:16;7.50;;;3.80;;
71679;SDS011;59512;42.662;23.254;2024-03-25T10:54:43;6.90;;;3.65;;
71679;SDS011;59512;42.662;23.254;2024-03-25T10:57:11;7.10;;;3.93;;
71679;SDS011;59512;42.662;23.254;2024-03-25T10:59:38;7.20;;;3.17;;
71679;SDS011;59512;42.662;23.254;2024-03-25T11:02:06;7.15;;;3.95;;
71679;SDS011;59512;42.662;23.254;2024-03-25T11:04:32;6.13;;;3.53;;
71679;SDS011;59512;42.662;23.254;2024-03-25T11:07:10;7.53;;;3.67;;
71679;SDS011;59512;42.662;23.254;2024-03-25T11:09:37;7.00;;;3.60;;
71679;SDS011;59512;42.662;23.254;2024-03-25T11:12:03;7.37;;;4.23;;
71679;SDS011;59512;42.662;23.254;2024-03-25T11:14:29;8.90;;;3.95;;
71679;SDS011;59512;42.662;23.254;2024-03-25T11:16:57;7.95;;;3.92;;
71679;SDS011;59512;42.662;23.254;2024-03-25T11:19:25;6.78;;;3.50;;
71679;SDS011;59512;42.662;23.254;2024-03-25T11:21:51;7.20;;;3.57;;
71679;SDS011;59512;42.662;23.254;2024-03-25T11:24:29;6.93;;;3.45;;
71679;SDS011;59512;42.662;23.254;2024-03-25T11:26:55;9.32;;;4.78;;
71679;SDS011;59512;42.662;23.254;2024-03-25T11:29:21;7.83;;;3.80;;
71679;SDS011;59512;42.662;23.254;2024-03-25T11:31:48;6.88;;;3.95;;
71679;SDS011;59512;42.662;23.254;2024-03-25T11:34:14;5.80;;;3.00;;
71679;SDS011;59512;42.662;23.254;2024-03-25T11:36:39;6.93;;;3.27;;
71679;SDS011;59512;42.662;23.254;2024-03-25T11:39:04;7.40;;;3.70;;
71679;SDS011;59512;42.662;23.254;2024-03-25T11:41:34;7.90;;;4.13;;
71679;SDS011;59512;42.662;23.254;2024-03-25T11:44:00;7.07;;;3.37;;
71679;SDS011;59512;42.662;23.254;2024-03-25T11:46:26;6.10;;;3.30;;
71679;SDS011;59512;42.662;23.254;2024-03-25T11:48:54;7.00;;;3.50;;
71679;SDS011;59512;42.662;23.254;2024-03-25T11:51:20;6.40;;;3.15;;
71679;SDS011;59512;42.662;23.254;2024-03-25T11:53:45;6.87;;;3.60;;
71679;SDS011;59512;42.662;23.254;2024-03-25T11:56:11;7.47;;;3.30;;
71679;SDS011;59512;42.662;23.254;2024-03-25T11:58:40;7.43;;;3.30;;
71679;SDS011;59512;42.662;23.254;2024-03-25T12:01:05;6.40;;;3.50;;
71679;SDS011;59512;42.662;23.254;2024-03-25T12:03:30;6.77;;;3.70;;
71679;SDS011;59512;42.662;23.254;2024-03-25T12:05:58;5.90;;;2.80;;
71679;SDS011;59512;42.662;23.254;2024-03-25T12:08:24;5.20;;;2.43;;
71679;SDS011;59512;42.662;23.254;2024-03-25T12:10:51;6.10;;;2.78;;
71679;SDS011;59512;42.662;23.254;2024-03-25T12:13:35;5.88;;;2.80;;
71679;SDS011;59512;42.662;23.254;2024-03-25T12:16:01;7.47;;;3.10;;
71679;SDS011;59512;42.662;23.254;2024-03-25T12:18:28;6.85;;;3.10;;
71679;SDS011;59512;42.662;23.254;2024-03-25T12:20:56;5.38;;;2.78;;
71679;SDS011;59512;42.662;23.254;2024-03-25T12:23:29;5.85;;;2.60;;
71679;SDS011;59512;42.662;23.254;2024-03-25T12:25:58;6.07;;;3.03;;
71679;SDS011;59512;42.662;23.254;2024-03-25T12:28:24;5.40;;;2.37;;
71679;SDS011;59512;42.662;23.254;2024-03-25T12:30:51;6.22;;;2.70;;
71679;SDS011;59512;42.662;23.254;2024-03-25T12:33:17;6.17;;;2.97;;
71679;SDS011;59512;42.662;23.254;2024-03-25T12:35:46;6.95;;;3.13;;
71679;SDS011;59512;42.662;23.254;2024-03-25T12:38:28;7.40;;;3.22;;
71679;SDS011;59512;42.662;23.254;2024-03-25T12:43:34;6.05;;;2.72;;
71679;SDS011;59512;42.662;23.254;2024-03-25T12:46:01;6.05;;;2.60;;
71679;SDS011;59512;42.662;23.254;2024-03-25T12:48:28;5.65;;;2.88;;
71679;SDS011;59512;42.662;23.254;2024-03-25T12:50:54;6.90;;;2.97;;
71679;SDS011;59512;42.662;23.254;2024-03-25T12:53:19;6.10;;;2.80;;
71679;SDS011;59512;42.662;23.254;2024-03-25T12:55:47;5.50;;;2.73;;
71679;SDS011;59512;42.662;23.254;2024-03-25T12:58:13;7.07;;;3.00;;
71679;SDS011;59512;42.662;23.254;2024-03-25T13:00:39;7.97;;;3.60;;
71679;SDS011;59512;42.662;23.254;2024-03-25T13:03:05;6.10;;;3.20;;
71679;SDS011;59512;42.662;23.254;2024-03-25T13:05:32;6.40;;;3.10;;
71679;SDS011;59512;42.662;23.254;2024-03-25T13:07:58;5.63;;;3.00;;
71679;SDS011;59512;42.662;23.254;2024-03-25T13:10:24;5.93;;;3.20;;
71679;SDS011;59512;42.662;23.254;2024-03-25T13:12:49;7.53;;;3.30;;
71679;SDS011;59512;42.662;23.254;2024-03-25T13:15:15;6.28;;;3.30;;
71679;SDS011;59512;42.662;23.254;2024-03-25T13:17:40;5.73;;;3.07;;
71679;SDS011;59512;42.662;23.254;2024-03-25T13:20:06;6.40;;;3.40;;
71679;SDS011;59512;42.662;23.254;2024-03-25T13:22:31;6.57;;;3.15;;
71679;SDS011;59512;42.662;23.254;2024-03-25T13:24:57;5.80;;;2.80;;
71679;SDS011;59512;42.662;23.254;2024-03-25T13:27:23;6.35;;;3.05;;
71679;SDS011;59512;42.662;23.254;2024-03-25T13:29:48;5.30;;;2.57;;
71679;SDS011;59512;42.662;23.254;2024-03-25T13:32:14;5.20;;;2.40;;
71679;SDS011;59512;42.662;23.254;2024-03-25T13:34:39;5.67;;;2.60;;
71679;SDS011;59512;42.662;23.254;2024-03-25T13:37:05;4.90;;;2.30;;
71679;SDS011;59512;42.662;23.254;2024-03-25T13:39:30;5.47;;;2.77;;
71679;SDS011;59512;42.662;23.254;2024-03-25T13:41:55;6.23;;;2.70;;
71679;SDS011;59512;42.662;23.254;2024-03-25T13:44:21;6.20;;;2.93;;
71679;SDS011;59512;42.662;23.254;2024-03-25T13:46:46;6.90;;;2.57;;
71679;SDS011;59512;42.662;23.254;2024-03-25T13:49:12;5.70;;;2.55;;
71679;SDS011;59512;42.662;23.254;2024-03-25T13:51:41;5.50;;;2.40;;
71679;SDS011;59512;42.662;23.254;2024-03-25T13:54:06;6.53;;;2.35;;
71679;SDS011;59512;42.662;23.254;2024-03-25T13:56:32;5.43;;;2.10;;
71679;SDS011;59512;42.662;23.254;2024-03-25T13:58:57;4.37;;;1.57;;
71679;SDS011;59512;42.662;23.254;2024-03-25T14:01:23;6.20;;;2.13;;
71679;SDS011;59512;42.662;23.254;2024-03-25T14:03:49;4.97;;;1.65;;
71679;SDS011;59512;42.662;23.254;2024-03-25T14:06:16;6.33;;;1.90;;
71679;SDS011;59512;42.662;23.254;2024-03-25T14:08:41;4.18;;;1.50;;
71679;SDS011;59512;42.662;23.254;2024-03-25T14:11:07;4.18;;;1.60;;
71679;SDS011;59512;42.662;23.254;2024-03-25T14:13:33;4.80;;;1.53;;
71679;SDS011;59512;42.662;23.254;2024-03-25T14:15:58;7.13;;;2.20;;
71679;SDS011;59512;42.662;23.254;2024-03-25T14:18:24;8.23;;;2.17;;
71679;SDS011;59512;42.662;23.254;2024-03-25T14:20:50;6.67;;;1.80;;
71679;SDS011;59512;42.662;23.254;2024-03-25T14:23:16;5.20;;;1.80;;
71679;SDS011;59512;42.662;23.254;2024-03-25T14:25:42;5.10;;;1.53;;
71679;SDS011;59512;42.662;23.254;2024-03-25T14:28:07;5.00;;;1.80;;